sensor_id;sensor_type;location;lat;lon;timestamp;temperature;humidity
26703;DHT22;14316;51.074;3.704;2024-03-07T00:01:04;8.30;99.90
26703;DHT22;14316;51.074;3.704;2024-03-07T00:03:30;8.20;99.90
26703;DHT22;14316;51.074;3.704;2024-03-07T00:05:56;8.10;99.90
26703;DHT22;14316;51.074;3.704;2024-03-07T00:08:22;8.10;99.90
26703;DHT22;14316;51.074;3.704;2024-03-07T00:10:48;8.10;99.90
26703;DHT22;14316;51.074;3.704;2024-03-07T00:13:14;8.10;99.90
26703;DHT22;14316;51.074;3.704;2024-03-07T00:15:40;8.00;99.90
26703;DHT22;14316;51.074;3.704;2024-03-07T00:18:07;7.90;99.90
26703;DHT22;14316;51.074;3.704;2024-03-07T00:20:33;8.00;99.90
26703;DHT22;14316;51.074;3.704;2024-03-07T00:22:59;8.10;99.90
26703;DHT22;14316;51.074;3.704;2024-03-07T00:25:25;8.10;99.90
26703;DHT22;14316;51.074;3.704;2024-03-07T00:27:51;8.00;99.90
26703;DHT22;14316;51.074;3.704;2024-03-07T00:30:19;8.00;99.90
26703;DHT22;14316;51.074;3.704;2024-03-07T00:32:46;7.90;99.90
26703;DHT22;14316;51.074;3.704;2024-03-07T00:35:12;7.80;99.90
26703;DHT22;14316;51.074;3.704;2024-03-07T00:37:39;7.70;99.90
26703;DHT22;14316;51.074;3.704;2024-03-07T00:40:05;7.70;99.90
26703;DHT22;14316;51.074;3.704;2024-03-07T00:42:31;7.70;99.90
26703;DHT22;14316;51.074;3.704;2024-03-07T00:44:57;7.70;99.90
26703;DHT22;14316;51.074;3.704;2024-03-07T00:47:23;7.80;99.90
26703;DHT22;14316;51.074;3.704;2024-03-07T00:49:49;7.80;99.90
26703;DHT22;14316;51.074;3.704;2024-03-07T00:52:15;7.90;99.90
26703;DHT22;14316;51.074;3.704;2024-03-07T00:54:42;7.90;99.90
26703;DHT22;14316;51.074;3.704;2024-03-07T00:57:08;7.80;99.90
26703;DHT22;14316;51.074;3.704;2024-03-07T00:59:35;7.80;99.90
26703;DHT22;14316;51.074;3.704;2024-03-07T01:02:01;7.70;99.90
26703;DHT22;14316;51.074;3.704;2024-03-07T01:04:27;7.60;99.90
26703;DHT22;14316;51.074;3.704;2024-03-07T01:06:57;7.70;99.90
26703;DHT22;14316;51.074;3.704;2024-03-07T01:09:24;7.70;99.90
26703;DHT22;14316;51.074;3.704;2024-03-07T01:11:50;7.70;99.90
26703;DHT22;14316;51.074;3.704;2024-03-07T01:14:16;7.80;99.90
26703;DHT22;14316;51.074;3.704;2024-03-07T01:16:42;7.80;99.90
26703;DHT22;14316;51.074;3.704;2024-03-07T01:19:08;7.80;99.90
26703;DHT22;14316;51.074;3.704;2024-03-07T01:21:34;7.70;99.90
26703;DHT22;14316;51.074;3.704;2024-03-07T01:24:04;7.70;99.90
26703;DHT22;14316;51.074;3.704;2024-03-07T01:26:30;7.70;99.90
26703;DHT22;14316;51.074;3.704;2024-03-07T01:28:59;7.70;99.90
26703;DHT22;14316;51.074;3.704;2024-03-07T01:31:25;7.80;99.90
26703;DHT22;14316;51.074;3.704;2024-03-07T01:33:52;7.80;99.90
26703;DHT22;14316;51.074;3.704;2024-03-07T01:36:19;7.90;99.90
26703;DHT22;14316;51.074;3.704;2024-03-07T01:38:46;7.80;99.90
26703;DHT22;14316;51.074;3.704;2024-03-07T01:41:12;7.70;99.90
26703;DHT22;14316;51.074;3.704;2024-03-07T01:43:40;7.60;99.90
26703;DHT22;14316;51.074;3.704;2024-03-07T01:46:06;7.50;99.90
26703;DHT22;14316;51.074;3.704;2024-03-07T01:48:34;7.50;99.90
26703;DHT22;14316;51.074;3.704;2024-03-07T01:51:00;7.40;99.90
26703;DHT22;14316;51.074;3.704;2024-03-07T01:53:30;7.40;99.90
26703;DHT22;14316;51.074;3.704;2024-03-07T01:55:58;7.30;99.90
26703;DHT22;14316;51.074;3.704;2024-03-07T01:58:24;7.30;99.90
26703;DHT22;14316;51.074;3.704;2024-03-07T02:00:50;7.20;99.90
26703;DHT22;14316;51.074;3.704;2024-03-07T02:03:17;7.30;99.90
26703;DHT22;14316;51.074;3.704;2024-03-07T02:05:43;7.40;99.90
26703;DHT22;14316;51.074;3.704;2024-03-07T02:08:09;7.50;99.90
26703;DHT22;14316;51.074;3.704;2024-03-07T02:10:35;7.50;99.90
26703;DHT22;14316;51.074;3.704;2024-03-07T02:13:01;7.40;99.90
26703;DHT22;14316;51.074;3.704;2024-03-07T02:15:28;7.30;99.90
26703;DHT22;14316;51.074;3.704;2024-03-07T02:17:54;7.30;99.90
26703;DHT22;14316;51.074;3.704;2024-03-07T02:20:20;7.30;99.90
26703;DHT22;14316;51.074;3.704;2024-03-07T02:22:47;7.20;99.90
26703;DHT22;14316;51.074;3.704;2024-03-07T02:25:13;7.20;99.90
26703;DHT22;14316;51.074;3.704;2024-03-07T02:27:41;7.20;99.90
26703;DHT22;14316;51.074;3.704;2024-03-07T02:30:07;7.20;99.90
26703;DHT22;14316;51.074;3.704;2024-03-07T02:32:34;7.20;99.90
26703;DHT22;14316;51.074;3.704;2024-03-07T02:35:03;7.20;99.90
26703;DHT22;14316;51.074;3.704;2024-03-07T02:37:29;7.20;99.90
26703;DHT22;14316;51.074;3.704;2024-03-07T02:39:55;7.20;99.90
26703;DHT22;14316;51.074;3.704;2024-03-07T02:42:21;7.20;99.90
26703;DHT22;14316;51.074;3.704;2024-03-07T02:44:47;7.20;99.90
26703;DHT22;14316;51.074;3.704;2024-03-07T02:47:13;7.20;99.90
26703;DHT22;14316;51.074;3.704;2024-03-07T02:49:39;7.10;99.90
26703;DHT22;14316;51.074;3.704;2024-03-07T02:52:05;6.90;99.90
26703;DHT22;14316;51.074;3.704;2024-03-07T02:54:33;6.80;99.90
26703;DHT22;14316;51.074;3.704;2024-03-07T02:57:00;6.80;99.90
26703;DHT22;14316;51.074;3.704;2024-03-07T02:59:26;6.80;99.90
26703;DHT22;14316;51.074;3.704;2024-03-07T03:01:52;6.60;99.90
26703;DHT22;14316;51.074;3.704;2024-03-07T03:04:18;6.50;99.90
26703;DHT22;14316;51.074;3.704;2024-03-07T03:06:44;6.40;99.90
26703;DHT22;14316;51.074;3.704;2024-03-07T03:09:10;6.60;99.90
26703;DHT22;14316;51.074;3.704;2024-03-07T03:11:39;6.70;99.90
26703;DHT22;14316;51.074;3.704;2024-03-07T03:14:05;6.80;99.90
26703;DHT22;14316;51.074;3.704;2024-03-07T03:16:31;6.80;99.90
26703;DHT22;14316;51.074;3.704;2024-03-07T03:18:57;6.70;99.90
26703;DHT22;14316;51.074;3.704;2024-03-07T03:21:23;6.80;99.90
26703;DHT22;14316;51.074;3.704;2024-03-07T03:23:49;6.80;99.90
26703;DHT22;14316;51.074;3.704;2024-03-07T03:26:15;6.80;99.90
26703;DHT22;14316;51.074;3.704;2024-03-07T03:28:41;6.80;99.90
26703;DHT22;14316;51.074;3.704;2024-03-07T03:31:08;6.90;99.90
26703;DHT22;14316;51.074;3.704;2024-03-07T03:33:34;7.00;99.90
26703;DHT22;14316;51.074;3.704;2024-03-07T03:36:01;7.10;99.90
26703;DHT22;14316;51.074;3.704;2024-03-07T03:38:26;7.10;99.90
26703;DHT22;14316;51.074;3.704;2024-03-07T03:40:52;7.10;99.90
26703;DHT22;14316;51.074;3.704;2024-03-07T03:43:18;7.00;99.90
26703;DHT22;14316;51.074;3.704;2024-03-07T03:45:44;6.70;99.90
26703;DHT22;14316;51.074;3.704;2024-03-07T03:48:11;6.60;99.90
26703;DHT22;14316;51.074;3.704;2024-03-07T03:50:37;6.60;99.90
26703;DHT22;14316;51.074;3.704;2024-03-07T03:53:03;6.50;99.90
26703;DHT22;14316;51.074;3.704;2024-03-07T03:55:29;6.40;99.90
26703;DHT22;14316;51.074;3.704;2024-03-07T03:57:55;6.30;99.90
26703;DHT22;14316;51.074;3.704;2024-03-07T04:00:21;6.30;99.90
26703;DHT22;14316;51.074;3.704;2024-03-07T04:02:48;6.30;99.90
26703;DHT22;14316;51.074;3.704;2024-03-07T04:05:16;6.40;99.90
26703;DHT22;14316;51.074;3.704;2024-03-07T04:07:43;6.30;99.90
26703;DHT22;14316;51.074;3.704;2024-03-07T04:10:10;6.40;99.90
26703;DHT22;14316;51.074;3.704;2024-03-07T04:12:38;6.30;99.90
26703;DHT22;14316;51.074;3.704;2024-03-07T04:17:33;6.20;99.90
26703;DHT22;14316;51.074;3.704;2024-03-07T04:20:03;6.30;99.90
26703;DHT22;14316;51.074;3.704;2024-03-07T04:22:37;6.20;99.90
26703;DHT22;14316;51.074;3.704;2024-03-07T04:25:06;6.10;99.90
26703;DHT22;14316;51.074;3.704;2024-03-07T04:27:33;6.00;99.90
26703;DHT22;14316;51.074;3.704;2024-03-07T04:30:09;6.00;99.90
26703;DHT22;14316;51.074;3.704;2024-03-07T04:32:37;5.90;99.90
26703;DHT22;14316;51.074;3.704;2024-03-07T04:35:04;5.90;99.90
26703;DHT22;14316;51.074;3.704;2024-03-07T04:37:33;5.80;99.90
26703;DHT22;14316;51.074;3.704;2024-03-07T04:40:05;5.80;99.90
26703;DHT22;14316;51.074;3.704;2024-03-07T04:42:42;5.90;99.90
26703;DHT22;14316;51.074;3.704;2024-03-07T04:45:09;6.00;99.90
26703;DHT22;14316;51.074;3.704;2024-03-07T04:47:36;6.00;99.90
26703;DHT22;14316;51.074;3.704;2024-03-07T04:50:03;6.10;99.90
26703;DHT22;14316;51.074;3.704;2024-03-07T04:52:30;6.10;99.90
26703;DHT22;14316;51.074;3.704;2024-03-07T04:54:56;6.00;99.90
26703;DHT22;14316;51.074;3.704;2024-03-07T04:57:22;6.00;99.90
26703;DHT22;14316;51.074;3.704;2024-03-07T04:59:48;5.90;99.90
26703;DHT22;14316;51.074;3.704;2024-03-07T05:02:14;5.90;99.90
26703;DHT22;14316;51.074;3.704;2024-03-07T05:04:40;5.90;99.90
26703;DHT22;14316;51.074;3.704;2024-03-07T05:07:06;5.90;99.90
26703;DHT22;14316;51.074;3.704;2024-03-07T05:09:31;5.90;99.90
26703;DHT22;14316;51.074;3.704;2024-03-07T05:11:59;5.90;99.90
26703;DHT22;14316;51.074;3.704;2024-03-07T05:14:25;5.90;99.90
26703;DHT22;14316;51.074;3.704;2024-03-07T05:16:51;5.90;99.90
26703;DHT22;14316;51.074;3.704;2024-03-07T05:19:34;5.90;99.90
26703;DHT22;14316;51.074;3.704;2024-03-07T05:22:01;5.90;99.90
26703;DHT22;14316;51.074;3.704;2024-03-07T05:24:28;5.80;99.90
26703;DHT22;14316;51.074;3.704;2024-03-07T05:26:54;5.80;99.90
26703;DHT22;14316;51.074;3.704;2024-03-07T05:29:20;5.80;99.90
26703;DHT22;14316;51.074;3.704;2024-03-07T05:31:46;5.80;99.90
26703;DHT22;14316;51.074;3.704;2024-03-07T05:34:18;5.90;99.90
26703;DHT22;14316;51.074;3.704;2024-03-07T05:36:47;5.90;99.90
26703;DHT22;14316;51.074;3.704;2024-03-07T05:39:14;5.90;99.90
26703;DHT22;14316;51.074;3.704;2024-03-07T05:41:41;6.00;99.90
26703;DHT22;14316;51.074;3.704;2024-03-07T05:44:08;6.00;99.90
26703;DHT22;14316;51.074;3.704;2024-03-07T05:46:38;6.00;99.90
26703;DHT22;14316;51.074;3.704;2024-03-07T05:49:10;5.90;99.90
26703;DHT22;14316;51.074;3.704;2024-03-07T05:51:36;6.00;99.90
26703;DHT22;14316;51.074;3.704;2024-03-07T05:54:02;5.90;99.90
26703;DHT22;14316;51.074;3.704;2024-03-07T05:56:33;5.70;99.90
26703;DHT22;14316;51.074;3.704;2024-03-07T05:59:05;5.60;99.90
26703;DHT22;14316;51.074;3.704;2024-03-07T06:01:36;5.70;99.90
26703;DHT22;14316;51.074;3.704;2024-03-07T06:04:03;5.70;99.90
26703;DHT22;14316;51.074;3.704;2024-03-07T06:06:31;5.70;99.90
26703;DHT22;14316;51.074;3.704;2024-03-07T06:09:03;5.70;99.90
26703;DHT22;14316;51.074;3.704;2024-03-07T06:11:42;5.70;99.90
26703;DHT22;14316;51.074;3.704;2024-03-07T06:14:09;5.70;99.90
26703;DHT22;14316;51.074;3.704;2024-03-07T06:16:38;5.80;99.90
26703;DHT22;14316;51.074;3.704;2024-03-07T06:19:05;5.90;99.90
26703;DHT22;14316;51.074;3.704;2024-03-07T06:21:36;6.00;99.90
26703;DHT22;14316;51.074;3.704;2024-03-07T06:24:03;6.10;99.90
26703;DHT22;14316;51.074;3.704;2024-03-07T06:26:33;6.20;99.90
26703;DHT22;14316;51.074;3.704;2024-03-07T06:29:04;6.10;99.90
26703;DHT22;14316;51.074;3.704;2024-03-07T06:31:42;6.10;99.90
26703;DHT22;14316;51.074;3.704;2024-03-07T06:34:08;6.20;99.90
26703;DHT22;14316;51.074;3.704;2024-03-07T06:36:35;6.30;99.90
26703;DHT22;14316;51.074;3.704;2024-03-07T06:39:01;6.20;99.90
26703;DHT22;14316;51.074;3.704;2024-03-07T06:41:33;6.40;99.90
26703;DHT22;14316;51.074;3.704;2024-03-07T06:44:00;6.40;99.90
26703;DHT22;14316;51.074;3.704;2024-03-07T06:46:26;6.50;99.90
26703;DHT22;14316;51.074;3.704;2024-03-07T06:48:52;6.50;99.90
26703;DHT22;14316;51.074;3.704;2024-03-07T06:51:18;6.70;99.90
26703;DHT22;14316;51.074;3.704;2024-03-07T06:53:44;6.70;99.90
26703;DHT22;14316;51.074;3.704;2024-03-07T06:56:12;6.60;99.90
26703;DHT22;14316;51.074;3.704;2024-03-07T06:58:39;6.50;99.90
26703;DHT22;14316;51.074;3.704;2024-03-07T07:01:05;6.70;99.90
26703;DHT22;14316;51.074;3.704;2024-03-07T07:03:35;6.70;99.90
26703;DHT22;14316;51.074;3.704;2024-03-07T07:06:01;6.70;99.90
26703;DHT22;14316;51.074;3.704;2024-03-07T07:08:27;6.70;99.90
26703;DHT22;14316;51.074;3.704;2024-03-07T07:10:56;6.80;99.90
26703;DHT22;14316;51.074;3.704;2024-03-07T07:13:23;6.80;99.90
26703;DHT22;14316;51.074;3.704;2024-03-07T07:15:49;6.70;99.90
26703;DHT22;14316;51.074;3.704;2024-03-07T07:18:15;6.80;99.90
26703;DHT22;14316;51.074;3.704;2024-03-07T07:20:41;6.80;99.90
26703;DHT22;14316;51.074;3.704;2024-03-07T07:23:07;6.80;99.90
26703;DHT22;14316;51.074;3.704;2024-03-07T07:25:33;6.90;99.90
26703;DHT22;14316;51.074;3.704;2024-03-07T07:27:59;7.00;99.90
26703;DHT22;14316;51.074;3.704;2024-03-07T07:30:25;7.10;99.90
26703;DHT22;14316;51.074;3.704;2024-03-07T07:32:53;7.30;99.90
26703;DHT22;14316;51.074;3.704;2024-03-07T07:35:22;7.30;99.90
26703;DHT22;14316;51.074;3.704;2024-03-07T07:37:50;7.50;99.90
26703;DHT22;14316;51.074;3.704;2024-03-07T07:40:18;7.80;99.90
26703;DHT22;14316;51.074;3.704;2024-03-07T07:42:45;7.80;99.90
26703;DHT22;14316;51.074;3.704;2024-03-07T07:45:13;7.60;99.90
26703;DHT22;14316;51.074;3.704;2024-03-07T07:47:51;7.70;99.90
26703;DHT22;14316;51.074;3.704;2024-03-07T07:50:21;7.80;99.90
26703;DHT22;14316;51.074;3.704;2024-03-07T07:52:48;7.80;99.90
26703;DHT22;14316;51.074;3.704;2024-03-07T07:55:16;8.00;99.90
26703;DHT22;14316;51.074;3.704;2024-03-07T07:57:44;8.00;99.90
26703;DHT22;14316;51.074;3.704;2024-03-07T08:00:15;8.20;99.90
26703;DHT22;14316;51.074;3.704;2024-03-07T08:02:56;8.50;99.90
26703;DHT22;14316;51.074;3.704;2024-03-07T08:05:24;8.50;99.90
26703;DHT22;14316;51.074;3.704;2024-03-07T08:07:52;8.50;99.90
26703;DHT22;14316;51.074;3.704;2024-03-07T08:10:23;8.50;99.90
26703;DHT22;14316;51.074;3.704;2024-03-07T08:12:49;8.70;99.90
26703;DHT22;14316;51.074;3.704;2024-03-07T08:15:16;8.70;99.90
26703;DHT22;14316;51.074;3.704;2024-03-07T08:17:44;8.50;99.90
26703;DHT22;14316;51.074;3.704;2024-03-07T08:20:11;8.60;99.90
26703;DHT22;14316;51.074;3.704;2024-03-07T08:22:39;8.90;99.90
26703;DHT22;14316;51.074;3.704;2024-03-07T08:25:07;8.80;99.90
26703;DHT22;14316;51.074;3.704;2024-03-07T08:27:38;8.70;99.90
26703;DHT22;14316;51.074;3.704;2024-03-07T08:30:06;9.00;99.90
26703;DHT22;14316;51.074;3.704;2024-03-07T08:32:35;9.50;99.90
26703;DHT22;14316;51.074;3.704;2024-03-07T08:35:04;9.70;99.90
26703;DHT22;14316;51.074;3.704;2024-03-07T08:37:34;9.80;99.90
26703;DHT22;14316;51.074;3.704;2024-03-07T08:40:01;10.00;99.90
26703;DHT22;14316;51.074;3.704;2024-03-07T08:42:30;10.10;99.90
26703;DHT22;14316;51.074;3.704;2024-03-07T08:45:00;10.20;99.90
26703;DHT22;14316;51.074;3.704;2024-03-07T08:47:27;10.20;99.90
26703;DHT22;14316;51.074;3.704;2024-03-07T08:49:54;10.20;99.90
26703;DHT22;14316;51.074;3.704;2024-03-07T08:52:20;10.40;99.90
26703;DHT22;14316;51.074;3.704;2024-03-07T08:54:46;10.50;99.90
26703;DHT22;14316;51.074;3.704;2024-03-07T08:57:12;10.20;99.90
26703;DHT22;14316;51.074;3.704;2024-03-07T08:59:42;9.90;99.90
26703;DHT22;14316;51.074;3.704;2024-03-07T09:02:09;10.10;99.90
26703;DHT22;14316;51.074;3.704;2024-03-07T09:04:37;9.70;99.90
26703;DHT22;14316;51.074;3.704;2024-03-07T09:07:04;9.90;99.90
26703;DHT22;14316;51.074;3.704;2024-03-07T09:09:32;10.00;99.90
26703;DHT22;14316;51.074;3.704;2024-03-07T09:11:59;10.30;99.90
26703;DHT22;14316;51.074;3.704;2024-03-07T09:14:29;10.30;99.90
26703;DHT22;14316;51.074;3.704;2024-03-07T09:16:55;10.60;99.90
26703;DHT22;14316;51.074;3.704;2024-03-07T09:19:22;10.60;99.90
26703;DHT22;14316;51.074;3.704;2024-03-07T09:21:53;10.90;99.90
26703;DHT22;14316;51.074;3.704;2024-03-07T09:24:20;11.00;99.90
26703;DHT22;14316;51.074;3.704;2024-03-07T09:26:49;11.20;99.90
26703;DHT22;14316;51.074;3.704;2024-03-07T09:29:16;11.20;99.90
26703;DHT22;14316;51.074;3.704;2024-03-07T09:31:46;10.80;99.90
26703;DHT22;14316;51.074;3.704;2024-03-07T09:34:15;10.60;99.90
26703;DHT22;14316;51.074;3.704;2024-03-07T09:36:42;10.60;99.90
26703;DHT22;14316;51.074;3.704;2024-03-07T09:39:08;10.80;99.90
26703;DHT22;14316;51.074;3.704;2024-03-07T09:41:38;11.00;99.90
26703;DHT22;14316;51.074;3.704;2024-03-07T09:44:05;10.90;99.90
26703;DHT22;14316;51.074;3.704;2024-03-07T09:46:34;11.20;99.90
26703;DHT22;14316;51.074;3.704;2024-03-07T09:49:01;11.80;99.90
26703;DHT22;14316;51.074;3.704;2024-03-07T09:51:27;12.20;99.90
26703;DHT22;14316;51.074;3.704;2024-03-07T09:53:53;13.30;99.90
26703;DHT22;14316;51.074;3.704;2024-03-07T09:56:24;14.20;99.90
26703;DHT22;14316;51.074;3.704;2024-03-07T09:58:51;15.10;99.90
26703;DHT22;14316;51.074;3.704;2024-03-07T10:01:21;15.30;99.90
26703;DHT22;14316;51.074;3.704;2024-03-07T10:03:48;15.30;99.90
26703;DHT22;14316;51.074;3.704;2024-03-07T10:06:15;14.90;99.90
26703;DHT22;14316;51.074;3.704;2024-03-07T10:08:42;14.70;99.90
26703;DHT22;14316;51.074;3.704;2024-03-07T10:11:09;15.20;99.90
26703;DHT22;14316;51.074;3.704;2024-03-07T10:13:35;16.00;99.90
26703;DHT22;14316;51.074;3.704;2024-03-07T10:16:02;16.50;99.90
26703;DHT22;14316;51.074;3.704;2024-03-07T10:18:31;16.90;99.90
26703;DHT22;14316;51.074;3.704;2024-03-07T10:20:57;17.40;99.90
26703;DHT22;14316;51.074;3.704;2024-03-07T10:23:24;17.90;99.90
26703;DHT22;14316;51.074;3.704;2024-03-07T10:25:53;18.00;99.90
26703;DHT22;14316;51.074;3.704;2024-03-07T10:28:22;17.80;99.90
26703;DHT22;14316;51.074;3.704;2024-03-07T10:30:48;18.00;99.90
26703;DHT22;14316;51.074;3.704;2024-03-07T10:33:17;18.70;99.90
26703;DHT22;14316;51.074;3.704;2024-03-07T10:35:46;18.90;99.90
26703;DHT22;14316;51.074;3.704;2024-03-07T10:38:12;19.30;99.90
26703;DHT22;14316;51.074;3.704;2024-03-07T10:40:38;19.40;99.90
26703;DHT22;14316;51.074;3.704;2024-03-07T10:43:10;19.30;99.90
26703;DHT22;14316;51.074;3.704;2024-03-07T10:45:48;19.80;99.90
26703;DHT22;14316;51.074;3.704;2024-03-07T10:48:18;21.40;99.90
26703;DHT22;14316;51.074;3.704;2024-03-07T10:51:06;22.40;98.50
26703;DHT22;14316;51.074;3.704;2024-03-07T10:59:20;23.90;91.50
26703;DHT22;14316;51.074;3.704;2024-03-07T11:04:50;24.20;87.20
26703;DHT22;14316;51.074;3.704;2024-03-07T11:07:22;24.20;84.10
26703;DHT22;14316;51.074;3.704;2024-03-07T11:09:52;24.20;83.50
26703;DHT22;14316;51.074;3.704;2024-03-07T11:12:23;24.20;82.00
26703;DHT22;14316;51.074;3.704;2024-03-07T11:14:51;24.40;80.70
26703;DHT22;14316;51.074;3.704;2024-03-07T11:17:18;24.40;80.00
26703;DHT22;14316;51.074;3.704;2024-03-07T11:19:45;25.00;77.70
26703;DHT22;14316;51.074;3.704;2024-03-07T11:22:31;25.30;77.60
26703;DHT22;14316;51.074;3.704;2024-03-07T11:25:04;25.70;74.00
26703;DHT22;14316;51.074;3.704;2024-03-07T11:27:39;25.90;72.00
26703;DHT22;14316;51.074;3.704;2024-03-07T11:30:17;25.60;71.00
26703;DHT22;14316;51.074;3.704;2024-03-07T11:32:43;25.00;74.10
26703;DHT22;14316;51.074;3.704;2024-03-07T11:35:14;24.90;72.30
26703;DHT22;14316;51.074;3.704;2024-03-07T11:37:43;25.50;70.10
26703;DHT22;14316;51.074;3.704;2024-03-07T11:40:12;26.00;69.50
26703;DHT22;14316;51.074;3.704;2024-03-07T11:42:47;26.50;68.40
26703;DHT22;14316;51.074;3.704;2024-03-07T11:45:17;26.80;67.80
26703;DHT22;14316;51.074;3.704;2024-03-07T11:47:54;27.10;65.80
26703;DHT22;14316;51.074;3.704;2024-03-07T11:50:29;27.30;65.50
26703;DHT22;14316;51.074;3.704;2024-03-07T11:53:01;27.50;64.60
26703;DHT22;14316;51.074;3.704;2024-03-07T11:55:27;28.10;65.40
26703;DHT22;14316;51.074;3.704;2024-03-07T11:58:20;25.60;68.20
26703;DHT22;14316;51.074;3.704;2024-03-07T12:00:50;22.20;72.10
26703;DHT22;14316;51.074;3.704;2024-03-07T12:03:20;22.60;75.50
26703;DHT22;14316;51.074;3.704;2024-03-07T12:05:50;23.40;74.20
26703;DHT22;14316;51.074;3.704;2024-03-07T12:08:19;25.30;72.30
26703;DHT22;14316;51.074;3.704;2024-03-07T12:10:48;26.40;70.40
26703;DHT22;14316;51.074;3.704;2024-03-07T12:13:19;27.30;69.30
26703;DHT22;14316;51.074;3.704;2024-03-07T12:15:46;28.50;64.80
26703;DHT22;14316;51.074;3.704;2024-03-07T12:18:12;29.40;62.90
26703;DHT22;14316;51.074;3.704;2024-03-07T12:20:43;29.30;62.50
26703;DHT22;14316;51.074;3.704;2024-03-07T12:23:16;29.20;63.70
26703;DHT22;14316;51.074;3.704;2024-03-07T12:25:45;30.30;58.30
26703;DHT22;14316;51.074;3.704;2024-03-07T12:28:12;30.70;58.90
26703;DHT22;14316;51.074;3.704;2024-03-07T12:30:55;30.70;55.80
26703;DHT22;14316;51.074;3.704;2024-03-07T12:33:22;28.90;55.40
26703;DHT22;14316;51.074;3.704;2024-03-07T12:35:54;27.20;56.60
26703;DHT22;14316;51.074;3.704;2024-03-07T12:38:31;26.30;58.80
26703;DHT22;14316;51.074;3.704;2024-03-07T12:41:07;27.00;56.60
26703;DHT22;14316;51.074;3.704;2024-03-07T12:43:40;28.40;54.00
26703;DHT22;14316;51.074;3.704;2024-03-07T12:46:10;29.30;56.70
26703;DHT22;14316;51.074;3.704;2024-03-07T12:48:38;29.80;56.50
26703;DHT22;14316;51.074;3.704;2024-03-07T12:51:04;28.90;54.70
26703;DHT22;14316;51.074;3.704;2024-03-07T12:53:30;28.30;55.00
26703;DHT22;14316;51.074;3.704;2024-03-07T12:55:57;29.40;53.70
26703;DHT22;14316;51.074;3.704;2024-03-07T12:58:23;30.30;56.70
26703;DHT22;14316;51.074;3.704;2024-03-07T13:00:52;31.60;52.70
26703;DHT22;14316;51.074;3.704;2024-03-07T13:03:18;32.40;50.10
26703;DHT22;14316;51.074;3.704;2024-03-07T13:05:44;32.90;52.50
26703;DHT22;14316;51.074;3.704;2024-03-07T13:08:11;33.30;46.30
26703;DHT22;14316;51.074;3.704;2024-03-07T13:10:43;32.90;48.60
26703;DHT22;14316;51.074;3.704;2024-03-07T13:13:09;32.30;49.60
26703;DHT22;14316;51.074;3.704;2024-03-07T13:15:39;31.90;49.70
26703;DHT22;14316;51.074;3.704;2024-03-07T13:18:08;31.60;49.50
26703;DHT22;14316;51.074;3.704;2024-03-07T13:20:37;32.10;46.90
26703;DHT22;14316;51.074;3.704;2024-03-07T13:23:03;33.00;45.50
26703;DHT22;14316;51.074;3.704;2024-03-07T13:25:29;33.70;43.00
26703;DHT22;14316;51.074;3.704;2024-03-07T13:28:06;33.60;41.10
26703;DHT22;14316;51.074;3.704;2024-03-07T13:30:39;33.30;42.40
26703;DHT22;14316;51.074;3.704;2024-03-07T13:33:05;33.00;43.00
26703;DHT22;14316;51.074;3.704;2024-03-07T13:35:32;32.70;44.50
26703;DHT22;14316;51.074;3.704;2024-03-07T13:37:59;32.70;43.70
26703;DHT22;14316;51.074;3.704;2024-03-07T13:40:26;32.90;43.00
26703;DHT22;14316;51.074;3.704;2024-03-07T13:42:55;33.40;41.80
26703;DHT22;14316;51.074;3.704;2024-03-07T13:45:23;33.60;42.10
26703;DHT22;14316;51.074;3.704;2024-03-07T13:47:50;33.80;40.00
26703;DHT22;14316;51.074;3.704;2024-03-07T13:50:18;34.20;40.10
26703;DHT22;14316;51.074;3.704;2024-03-07T13:52:51;34.10;40.00
26703;DHT22;14316;51.074;3.704;2024-03-07T14:16:21;28.90;43.20
26703;DHT22;14316;51.074;3.704;2024-03-07T14:27:39;27.40;46.70
26703;DHT22;14316;51.074;3.704;2024-03-07T14:33:01;28.80;44.80
26703;DHT22;14316;51.074;3.704;2024-03-07T14:36:06;28.90;45.90
26703;DHT22;14316;51.074;3.704;2024-03-07T14:38:51;28.60;46.40
26703;DHT22;14316;51.074;3.704;2024-03-07T14:41:23;28.30;44.20
26703;DHT22;14316;51.074;3.704;2024-03-07T14:43:51;29.00;42.70
26703;DHT22;14316;51.074;3.704;2024-03-07T14:46:17;28.70;44.70
26703;DHT22;14316;51.074;3.704;2024-03-07T14:48:44;28.00;45.80
26703;DHT22;14316;51.074;3.704;2024-03-07T14:51:12;28.00;47.40
26703;DHT22;14316;51.074;3.704;2024-03-07T14:53:40;28.30;43.30
26703;DHT22;14316;51.074;3.704;2024-03-07T14:56:09;28.20;45.50
26703;DHT22;14316;51.074;3.704;2024-03-07T14:58:36;28.30;44.90
26703;DHT22;14316;51.074;3.704;2024-03-07T15:01:04;28.20;43.60
26703;DHT22;14316;51.074;3.704;2024-03-07T15:03:31;28.20;42.80
26703;DHT22;14316;51.074;3.704;2024-03-07T15:05:58;28.50;42.50
26703;DHT22;14316;51.074;3.704;2024-03-07T15:08:24;28.80;43.70
26703;DHT22;14316;51.074;3.704;2024-03-07T15:10:58;29.00;41.50
26703;DHT22;14316;51.074;3.704;2024-03-07T15:13:25;29.10;41.70
26703;DHT22;14316;51.074;3.704;2024-03-07T15:15:50;28.90;41.50
26703;DHT22;14316;51.074;3.704;2024-03-07T15:18:17;29.00;40.80
26703;DHT22;14316;51.074;3.704;2024-03-07T15:20:43;28.90;42.20
26703;DHT22;14316;51.074;3.704;2024-03-07T15:23:09;29.10;40.80
26703;DHT22;14316;51.074;3.704;2024-03-07T15:25:34;29.40;40.60
26703;DHT22;14316;51.074;3.704;2024-03-07T15:28:03;29.10;40.10
26703;DHT22;14316;51.074;3.704;2024-03-07T15:30:29;28.90;43.60
26703;DHT22;14316;51.074;3.704;2024-03-07T15:33:01;28.50;40.10
26703;DHT22;14316;51.074;3.704;2024-03-07T15:35:27;28.30;40.90
26703;DHT22;14316;51.074;3.704;2024-03-07T15:37:53;27.80;40.80
26703;DHT22;14316;51.074;3.704;2024-03-07T15:40:20;27.50;41.60
26703;DHT22;14316;51.074;3.704;2024-03-07T15:42:48;27.30;42.00
26703;DHT22;14316;51.074;3.704;2024-03-07T15:45:21;27.10;42.10
26703;DHT22;14316;51.074;3.704;2024-03-07T15:47:55;26.90;43.90
26703;DHT22;14316;51.074;3.704;2024-03-07T15:50:25;26.60;43.80
26703;DHT22;14316;51.074;3.704;2024-03-07T15:52:55;26.90;41.60
26703;DHT22;14316;51.074;3.704;2024-03-07T15:55:22;26.50;41.80
26703;DHT22;14316;51.074;3.704;2024-03-07T15:57:54;26.20;42.60
26703;DHT22;14316;51.074;3.704;2024-03-07T16:00:26;26.00;42.40
26703;DHT22;14316;51.074;3.704;2024-03-07T16:03:00;26.10;42.40
26703;DHT22;14316;51.074;3.704;2024-03-07T16:05:30;26.10;41.50
26703;DHT22;14316;51.074;3.704;2024-03-07T16:07:58;25.80;42.30
26703;DHT22;14316;51.074;3.704;2024-03-07T16:10:27;25.00;45.00
26703;DHT22;14316;51.074;3.704;2024-03-07T16:12:57;24.80;44.30
26703;DHT22;14316;51.074;3.704;2024-03-07T16:15:23;24.80;46.00
26703;DHT22;14316;51.074;3.704;2024-03-07T16:17:55;24.90;43.70
26703;DHT22;14316;51.074;3.704;2024-03-07T16:20:31;24.70;43.30
26703;DHT22;14316;51.074;3.704;2024-03-07T16:22:58;24.10;43.80
26703;DHT22;14316;51.074;3.704;2024-03-07T16:25:25;23.70;45.00
26703;DHT22;14316;51.074;3.704;2024-03-07T16:27:53;23.20;45.00
26703;DHT22;14316;51.074;3.704;2024-03-07T16:30:24;22.90;46.00